Terminal Aerodrome Forecast
Issued by NWS Louisville, KY

Home | Current Version | Previous Version | Text Only | Print | Product List | Glossary On
Versions: 1 2 3 4 5 6 7 8 9 10 11 12 13 14
820
FTUS43 KLMK 132325
TAFSDF
TAF
KSDF 132325Z 1400/1506 33006KT P6SM BKN150
     FM140300 06004KT P6SM BKN100
     FM141400 12007KT P6SM -SN BKN040
     FM141900 15008KT 2SM -SN BKN008=

USA.gov is the U.S. government's official web portal to all federal, state and local government web resources and services.